createdAt,value
2023-01-28T00:01:17.939Z,91.76
2023-01-28T00:03:48.042Z,91.88
2023-01-28T00:06:19.030Z,91.90
2023-01-28T00:08:51.503Z,91.89
2023-01-28T00:11:22.611Z,91.90
2023-01-28T00:13:55.229Z,91.95
2023-01-28T00:16:27.459Z,91.88
2023-01-28T00:18:57.743Z,91.94
2023-01-28T00:21:27.579Z,91.89
2023-01-28T00:24:00.506Z,91.99
2023-01-28T00:26:30.719Z,92.04
2023-01-28T00:29:00.553Z,91.89
2023-01-28T00:31:31.230Z,91.83
2023-01-28T00:34:01.214Z,92.03
2023-01-28T00:36:31.016Z,92.01
2023-01-28T00:39:03.453Z,91.90
2023-01-28T00:41:33.348Z,92.07
2023-01-28T00:44:03.166Z,92.15
2023-01-28T00:46:33.008Z,92.30
2023-01-28T00:49:02.919Z,92.22
2023-01-28T00:51:32.727Z,92.23
2023-01-28T00:54:05.308Z,92.32
2023-01-28T00:56:37.072Z,92.27
2023-01-28T00:59:07.090Z,92.33
2023-01-28T01:01:37.293Z,92.24
2023-01-28T01:04:07.612Z,92.22
2023-01-28T01:06:39.302Z,92.34
2023-01-28T01:09:14.713Z,92.41
2023-01-28T01:11:44.556Z,92.30
2023-01-28T01:14:14.515Z,92.24
2023-01-28T01:16:44.299Z,92.37
2023-01-28T01:19:14.091Z,92.47
2023-01-28T01:21:43.899Z,92.37
2023-01-28T01:24:16.300Z,92.38
2023-01-28T01:26:46.309Z,92.35
2023-01-28T01:29:16.082Z,92.43
2023-01-28T01:31:46.302Z,92.29
2023-01-28T01:34:16.110Z,92.40
2023-01-28T01:36:46.701Z,92.37
2023-01-28T01:39:19.278Z,92.29
2023-01-28T01:41:49.122Z,92.32
2023-01-28T01:44:48.824Z,92.29
2023-01-28T01:47:20.987Z,92.44
2023-01-28T01:49:50.896Z,92.37
2023-01-28T01:52:23.989Z,92.39
2023-01-28T01:55:00.183Z,92.39
2023-01-28T01:57:34.927Z,92.54
2023-01-28T02:00:08.797Z,92.46
2023-01-28T02:02:42.961Z,92.46
2023-01-28T02:05:15.108Z,92.37
2023-01-28T02:07:47.645Z,92.43
2023-01-28T02:10:20.952Z,92.59
2023-01-28T02:12:56.330Z,92.58
2023-01-28T02:15:29.877Z,92.47
2023-01-28T02:18:00.361Z,92.50
2023-01-28T02:20:44.987Z,92.48
2023-01-28T02:23:46.151Z,92.46
2023-01-28T02:26:42.890Z,92.47
2023-01-28T02:29:21.564Z,92.43
2023-01-28T02:31:57.162Z,92.52
2023-01-28T02:34:38.206Z,92.52
2023-01-28T02:37:15.423Z,92.51
2023-01-28T02:39:50.789Z,92.37
2023-01-28T02:42:24.542Z,92.41
2023-01-28T02:44:56.954Z,92.44
2023-01-28T02:47:39.365Z,92.51
2023-01-28T02:50:12.214Z,92.52
2023-01-28T02:53:06.809Z,92.36
2023-01-28T02:55:43.039Z,92.31
2023-01-28T02:58:22.094Z,92.40
2023-01-28T03:01:04.759Z,92.48
2023-01-28T03:03:40.209Z,92.27
2023-01-28T03:06:14.834Z,92.40
2023-01-28T03:09:01.712Z,92.43
2023-01-28T03:11:46.598Z,92.38
2023-01-28T03:14:30.189Z,92.53
2023-01-28T03:17:16.515Z,92.50
2023-01-28T03:19:58.945Z,92.52
2023-01-28T03:22:44.466Z,92.39
2023-01-28T03:25:30.426Z,92.48
2023-01-28T03:28:17.911Z,92.50
2023-01-28T03:31:03.940Z,92.61
2023-01-28T03:33:50.892Z,92.53
2023-01-28T03:36:33.293Z,92.45
2023-01-28T03:39:03.064Z,92.62
2023-01-28T03:41:32.918Z,92.60
2023-01-28T03:44:15.093Z,92.60
2023-01-28T03:46:44.828Z,92.52
2023-01-28T03:49:18.106Z,92.71
2023-01-28T03:51:48.128Z,92.66
2023-01-28T03:54:18.003Z,92.71
2023-01-28T03:56:48.638Z,92.77
2023-01-28T03:59:18.440Z,92.72
2023-01-28T04:01:50.793Z,92.80
2023-01-28T04:04:25.728Z,92.82
2023-01-28T04:06:56.217Z,92.90
2023-01-28T04:09:26.365Z,92.95
2023-01-28T04:11:56.173Z,93.03
2023-01-28T04:14:25.927Z,92.94
2023-01-28T04:16:56.165Z,93.00
2023-01-28T04:19:29.230Z,93.08
2023-01-28T04:21:59.015Z,93.06
2023-01-28T04:24:28.840Z,93.02
2023-01-28T04:26:58.653Z,93.04
2023-01-28T04:29:28.460Z,93.04
2023-01-28T04:31:58.234Z,93.05
2023-01-28T04:34:30.736Z,93.11
2023-01-28T04:37:00.471Z,93.15
2023-01-28T04:39:30.230Z,93.17
2023-01-28T04:41:59.963Z,93.13
2023-01-28T04:44:29.708Z,93.30
2023-01-28T04:46:59.489Z,93.20
2023-01-28T04:49:32.872Z,93.25
2023-01-28T04:52:02.625Z,93.28
2023-01-28T04:54:32.348Z,93.39
2023-01-28T04:57:02.133Z,93.27
2023-01-28T04:59:31.880Z,93.32
2023-01-28T05:02:01.664Z,93.33
2023-01-28T05:04:34.036Z,93.20
2023-01-28T05:07:03.803Z,93.19
2023-01-28T05:09:33.568Z,93.15
2023-01-28T05:12:03.333Z,93.26
2023-01-28T05:14:33.110Z,93.37
2023-01-28T05:17:03.088Z,93.10
2023-01-28T05:19:35.528Z,93.16
2023-01-28T05:22:05.284Z,93.19
2023-01-28T05:24:35.071Z,93.15
2023-01-28T05:27:04.845Z,93.20
2023-01-28T05:29:34.619Z,93.18
2023-01-28T05:32:04.453Z,93.15
2023-01-28T05:34:36.822Z,93.30
2023-01-28T05:37:06.548Z,93.23
2023-01-28T05:39:36.295Z,93.15
2023-01-28T05:42:06.258Z,93.17
2023-01-28T05:44:36.503Z,93.16
2023-01-28T05:47:06.365Z,93.09
2023-01-28T05:49:38.726Z,93.11
2023-01-28T05:52:08.508Z,93.14
2023-01-28T05:54:38.276Z,93.35
2023-01-28T05:57:08.069Z,93.29
2023-01-28T05:59:37.843Z,93.33
2023-01-28T06:02:07.589Z,93.23
2023-01-28T06:04:40.175Z,93.28
2023-01-28T06:07:09.898Z,93.35
2023-01-28T06:09:39.641Z,93.41
2023-01-28T06:12:09.970Z,93.42
2023-01-28T06:14:39.709Z,93.43
2023-01-28T06:17:09.485Z,93.47
2023-01-28T06:19:41.841Z,93.52
2023-01-28T06:22:11.652Z,93.61
2023-01-28T06:24:41.462Z,93.54
2023-01-28T06:27:11.325Z,93.67
2023-01-28T06:29:41.173Z,93.56
2023-01-28T06:32:11.239Z,93.59
2023-01-28T06:34:43.857Z,93.46
2023-01-28T06:37:16.183Z,93.49
2023-01-28T06:39:45.920Z,93.56
2023-01-28T06:42:15.792Z,93.49
2023-01-28T06:44:45.558Z,93.67
2023-01-28T06:47:15.680Z,93.52
2023-01-28T06:49:48.029Z,93.61
2023-01-28T06:52:17.752Z,93.68
2023-01-28T06:54:47.503Z,93.58
2023-01-28T06:57:17.326Z,93.58
2023-01-28T06:59:47.102Z,93.64
2023-01-28T07:02:16.958Z,93.62
2023-01-28T07:04:49.341Z,93.61
2023-01-28T07:07:19.116Z,93.59
2023-01-28T07:09:48.844Z,93.75
2023-01-28T07:12:18.624Z,93.55
2023-01-28T07:14:48.517Z,93.66
2023-01-28T07:17:18.343Z,93.71
2023-01-28T07:19:50.753Z,93.70
2023-01-28T07:22:20.496Z,93.73
2023-01-28T07:24:50.310Z,93.77
2023-01-28T07:27:20.089Z,93.75
2023-01-28T07:29:49.816Z,93.90
2023-01-28T07:32:19.581Z,93.95
2023-01-28T07:34:51.975Z,93.86
2023-01-28T07:37:21.864Z,93.78
2023-01-28T07:39:52.348Z,93.81
2023-01-28T07:42:22.151Z,94.05
2023-01-28T07:44:52.448Z,94.06
2023-01-28T07:47:22.375Z,93.92
2023-01-28T07:49:54.855Z,93.95
2023-01-28T07:52:24.603Z,94.10
2023-01-28T07:54:54.495Z,94.13
2023-01-28T07:57:26.170Z,94.37
2023-01-28T07:59:55.938Z,94.51
2023-01-28T08:02:25.691Z,94.51
2023-01-28T08:04:59.494Z,94.39
2023-01-28T08:07:30.475Z,94.48
2023-01-28T08:10:00.246Z,94.49
2023-01-28T08:12:30.016Z,94.71
2023-01-28T08:14:59.970Z,94.76
2023-01-28T08:17:30.841Z,94.69
2023-01-28T08:20:03.241Z,94.88
2023-01-28T08:22:33.029Z,95.13
2023-01-28T08:25:02.825Z,95.10
2023-01-28T08:27:32.625Z,95.25
2023-01-28T08:30:02.410Z,95.35
2023-01-28T08:32:32.583Z,95.24
2023-01-28T08:35:05.367Z,95.43
2023-01-28T08:37:35.105Z,95.28
2023-01-28T08:40:04.909Z,95.43
2023-01-28T08:42:34.695Z,95.60
2023-01-28T08:45:04.455Z,95.62
2023-01-28T08:47:34.234Z,95.87
2023-01-28T08:50:07.392Z,95.80
2023-01-28T08:52:37.161Z,96.07
2023-01-28T08:55:07.504Z,95.97
2023-01-28T08:57:37.290Z,96.08
2023-01-28T09:00:10.868Z,96.34
2023-01-28T09:02:40.921Z,96.54
2023-01-28T09:05:13.662Z,96.69
2023-01-28T09:07:43.424Z,96.46
2023-01-28T09:10:15.100Z,96.69
2023-01-28T09:12:45.179Z,96.74
2023-01-28T09:15:15.652Z,96.52
2023-01-28T09:17:45.396Z,96.62
2023-01-28T09:20:18.137Z,96.59
2023-01-28T09:22:47.992Z,96.57
2023-01-28T09:25:17.889Z,96.37
2023-01-28T09:27:47.704Z,96.34
2023-01-28T09:30:18.590Z,96.16
2023-01-28T09:32:48.578Z,95.89
2023-01-28T09:35:21.374Z,95.85
2023-01-28T09:37:52.299Z,95.64
2023-01-28T09:40:30.156Z,95.49
2023-01-28T09:43:11.001Z,95.26
2023-01-28T09:45:45.453Z,95.07
2023-01-28T09:48:21.750Z,95.04
2023-01-28T09:50:56.538Z,94.96
2023-01-28T09:53:31.409Z,94.92
2023-01-28T09:56:04.742Z,95.00
2023-01-28T09:58:35.103Z,94.75
2023-01-28T10:01:17.703Z,94.77
2023-01-28T10:03:57.777Z,94.71
2023-01-28T10:06:44.936Z,94.66
2023-01-28T10:09:33.571Z,94.66
2023-01-28T10:12:25.507Z,94.60
2023-01-28T10:15:13.419Z,94.59
2023-01-28T10:17:46.743Z,94.68
2023-01-28T10:20:26.050Z,94.50
2023-01-28T10:23:07.633Z,94.58
2023-01-28T10:25:39.411Z,94.73
2023-01-28T10:28:18.940Z,94.63
2023-01-28T10:30:50.404Z,94.58
2023-01-28T10:33:25.100Z,94.55
2023-01-28T10:35:54.945Z,94.46
2023-01-28T10:38:30.127Z,94.55
2023-01-28T10:41:03.323Z,94.64
2023-01-28T10:43:35.849Z,94.66
2023-01-28T10:46:10.420Z,94.69
2023-01-28T10:48:46.350Z,94.73
2023-01-28T10:51:16.319Z,94.59
2023-01-28T10:53:49.448Z,94.83
2023-01-28T10:56:26.415Z,94.78
2023-01-28T10:59:03.474Z,94.76
2023-01-28T11:01:47.986Z,94.80
2023-01-28T11:04:25.615Z,94.64
2023-01-28T11:06:57.025Z,94.74
2023-01-28T11:09:33.141Z,94.58
2023-01-28T11:12:14.573Z,94.71
2023-01-28T11:14:53.464Z,94.57
2023-01-28T11:17:25.924Z,94.60
2023-01-28T11:19:57.141Z,94.67
2023-01-28T11:22:34.765Z,94.50
2023-01-28T11:25:18.900Z,94.45
2023-01-28T11:27:51.888Z,94.57
2023-01-28T11:30:26.382Z,94.42
2023-01-28T11:33:20.500Z,94.42
2023-01-28T11:35:57.280Z,94.52
2023-01-28T11:38:29.134Z,94.54
2023-01-28T11:41:02.771Z,94.54
2023-01-28T11:43:34.388Z,94.57
2023-01-28T11:46:20.665Z,94.60
2023-01-28T11:49:02.050Z,94.69
2023-01-28T11:51:43.454Z,94.61
2023-01-28T11:54:25.840Z,94.51
2023-01-28T11:57:21.269Z,94.56
2023-01-28T12:00:04.003Z,94.47
2023-01-28T12:02:48.845Z,94.40
2023-01-28T12:05:31.688Z,94.41
2023-01-28T12:08:10.589Z,94.42
2023-01-28T12:10:50.207Z,94.37
2023-01-28T12:13:48.945Z,94.42
2023-01-28T12:16:45.551Z,94.45
2023-01-28T12:19:33.268Z,94.40
2023-01-28T12:22:29.859Z,94.44
2023-01-28T12:25:18.390Z,94.47
2023-01-28T12:27:55.304Z,94.55
2023-01-28T12:30:40.707Z,94.42
2023-01-28T12:33:43.794Z,94.51
2023-01-28T12:36:27.810Z,94.53
2023-01-28T12:39:09.502Z,94.43
2023-01-28T12:41:43.579Z,94.42
2023-01-28T12:44:17.464Z,94.46
2023-01-28T12:46:55.933Z,94.47
2023-01-28T12:49:32.619Z,94.41
2023-01-28T12:52:08.067Z,94.24
2023-01-28T12:54:44.184Z,94.31
2023-01-28T12:57:30.151Z,94.28
2023-01-28T13:00:09.786Z,94.14
2023-01-28T13:02:45.896Z,94.16
2023-01-28T13:05:20.214Z,94.20
2023-01-28T13:07:55.138Z,94.23
2023-01-28T13:10:30.166Z,94.13
2023-01-28T13:13:00.824Z,94.28
2023-01-28T13:15:31.364Z,94.17
2023-01-28T13:18:05.444Z,94.19
2023-01-28T13:20:55.693Z,94.21
2023-01-28T13:23:28.062Z,94.19
2023-01-28T13:25:58.585Z,94.13
2023-01-28T13:28:31.487Z,94.09
2023-01-28T13:31:07.034Z,94.13
2023-01-28T13:33:41.824Z,94.12
2023-01-28T13:36:26.844Z,94.20
2023-01-28T13:39:08.109Z,94.22
2023-01-28T13:41:43.114Z,94.13
2023-01-28T13:44:24.407Z,94.24
2023-01-28T13:46:54.992Z,94.24
2023-01-28T13:49:35.762Z,94.33
2023-01-28T13:52:16.323Z,94.22
2023-01-28T13:54:52.166Z,94.19
2023-01-28T13:58:10.672Z,94.30
2023-01-28T14:00:49.346Z,94.27
2023-01-28T14:03:54.265Z,94.34
2023-01-28T14:06:51.253Z,94.39
2023-01-28T14:09:54.816Z,94.25
2023-01-28T14:12:41.180Z,94.32
2023-01-28T14:15:28.281Z,94.42
2023-01-28T14:18:00.156Z,94.30
2023-01-28T14:20:37.977Z,94.28
2023-01-28T14:23:22.298Z,94.28
2023-01-28T14:26:05.518Z,94.33
2023-01-28T14:28:47.268Z,94.30
2023-01-28T14:31:21.485Z,94.33
2023-01-28T14:33:51.527Z,94.31
2023-01-28T14:36:21.412Z,94.35
2023-01-28T14:38:53.961Z,94.26
2023-01-28T14:41:28.066Z,94.33
2023-01-28T14:43:58.881Z,94.31
2023-01-28T14:46:38.823Z,94.25
2023-01-28T14:49:21.960Z,94.24
2023-01-28T14:52:29.330Z,94.33
2023-01-28T14:55:09.063Z,94.34
2023-01-28T14:57:49.977Z,94.32
2023-01-28T15:00:22.677Z,94.32
2023-01-28T15:02:52.836Z,94.27
2023-01-28T15:05:25.385Z,94.31
2023-01-28T15:07:55.950Z,94.25
2023-01-28T15:10:32.180Z,94.35
2023-01-28T15:13:12.786Z,94.20
2023-01-28T15:15:44.045Z,94.25
2023-01-28T15:18:19.619Z,94.21
2023-01-28T15:20:50.642Z,94.28
2023-01-28T15:23:26.031Z,94.22
2023-01-28T15:25:58.927Z,94.39
2023-01-28T15:28:32.901Z,94.34
2023-01-28T15:31:03.207Z,94.43
2023-01-28T15:33:33.221Z,94.43
2023-01-28T15:36:03.406Z,94.44
2023-01-28T15:38:33.271Z,94.32
2023-01-28T15:41:08.526Z,94.40
2023-01-28T15:43:41.607Z,94.39
2023-01-28T15:46:15.251Z,94.42
2023-01-28T15:48:48.566Z,94.33
2023-01-28T15:51:26.337Z,94.42
2023-01-28T15:54:01.721Z,94.41
2023-01-28T15:56:34.487Z,94.38
2023-01-28T15:59:21.336Z,94.54
2023-01-28T16:01:51.286Z,94.44
2023-01-28T16:04:29.190Z,94.41
2023-01-28T16:07:01.644Z,94.51
2023-01-28T16:09:34.497Z,94.53
2023-01-28T16:12:11.613Z,94.60
2023-01-28T16:14:46.915Z,94.67
2023-01-28T16:17:20.578Z,94.63
2023-01-28T16:19:53.634Z,94.77
2023-01-28T16:22:29.892Z,94.61
2023-01-28T16:25:00.149Z,94.70
2023-01-28T16:27:34.164Z,94.81
2023-01-28T16:30:04.251Z,94.93
2023-01-28T16:32:39.078Z,95.00
2023-01-28T16:35:18.068Z,95.10
2023-01-28T16:37:49.166Z,95.08
2023-01-28T16:40:21.756Z,95.23
2023-01-28T16:42:57.170Z,95.18
2023-01-28T16:45:28.025Z,95.28
2023-01-28T16:47:58.603Z,95.42
2023-01-28T16:50:28.408Z,95.40
2023-01-28T16:52:59.180Z,95.63
2023-01-28T16:55:29.608Z,95.63
2023-01-28T16:58:02.164Z,95.62
2023-01-28T17:00:33.432Z,95.69
2023-01-28T17:03:03.273Z,95.84
2023-01-28T17:05:33.646Z,95.94
2023-01-28T17:08:03.466Z,95.89
2023-01-28T17:10:33.257Z,96.04
2023-01-28T17:13:06.168Z,96.13
2023-01-28T17:15:37.711Z,96.18
2023-01-28T17:18:08.140Z,96.28
2023-01-28T17:20:40.532Z,96.42
2023-01-28T17:23:10.968Z,96.33
2023-01-28T17:25:41.856Z,96.50
2023-01-28T17:28:14.320Z,96.73
2023-01-28T17:30:44.983Z,96.76
2023-01-28T17:33:14.944Z,96.73
2023-01-28T17:35:49.141Z,96.85
2023-01-28T17:38:19.295Z,96.90
2023-01-28T17:40:49.144Z,97.09
2023-01-28T17:43:21.583Z,97.07
2023-01-28T17:45:51.559Z,97.17
2023-01-28T17:48:21.424Z,97.30
2023-01-28T17:50:51.253Z,97.40
2023-01-28T17:53:21.119Z,97.34
2023-01-28T17:55:50.947Z,97.43
2023-01-28T17:58:23.426Z,97.59
2023-01-28T18:00:53.268Z,97.63
2023-01-28T18:03:23.095Z,97.63
2023-01-28T18:06:01.318Z,97.72
2023-01-28T18:08:31.119Z,97.94
2023-01-28T18:11:02.876Z,97.91
2023-01-28T18:13:37.804Z,98.01
2023-01-28T18:16:09.960Z,98.12
2023-01-28T18:18:39.757Z,98.13
2023-01-28T18:21:10.831Z,98.26
2023-01-28T18:23:40.608Z,98.22
2023-01-28T18:26:10.441Z,98.39
2023-01-28T18:28:42.836Z,98.33
2023-01-28T18:31:12.711Z,98.43
2023-01-28T18:33:42.645Z,98.53
2023-01-28T18:36:13.309Z,98.58
2023-01-28T18:38:43.114Z,98.56
2023-01-28T18:41:13.019Z,98.66
2023-01-28T18:43:46.006Z,98.87
2023-01-28T18:46:18.706Z,98.87
2023-01-28T18:48:48.537Z,98.83
2023-01-28T18:51:29.714Z,98.86
2023-01-28T18:54:02.142Z,98.96
2023-01-28T18:56:33.091Z,99.09
2023-01-28T18:59:07.517Z,99.07
2023-01-28T19:01:38.051Z,99.15
2023-01-28T19:04:07.991Z,99.23
2023-01-28T19:06:38.124Z,99.22
2023-01-28T19:09:09.280Z,99.28
2023-01-28T19:11:40.819Z,99.36
2023-01-28T19:14:16.722Z,99.35
2023-01-28T19:16:47.561Z,99.46
2023-01-28T19:19:17.433Z,99.46
2023-01-28T19:21:47.259Z,99.47
2023-01-28T19:24:17.217Z,99.74
2023-01-28T19:26:47.860Z,99.63
2023-01-28T19:29:20.514Z,99.68
2023-01-28T19:31:50.819Z,99.81
2023-01-28T19:34:21.662Z,99.86
2023-01-28T19:36:51.696Z,99.83
2023-01-28T19:39:22.047Z,99.91
2023-01-28T19:41:52.042Z,99.91
2023-01-28T19:44:24.663Z,99.95
2023-01-28T19:46:54.648Z,100.00
2023-01-28T19:49:24.735Z,100.00
2023-01-28T19:51:54.601Z,99.92
2023-01-28T19:54:24.470Z,100.00
2023-01-28T19:56:54.480Z,100.00
2023-01-28T19:59:27.139Z,99.99
2023-01-28T20:01:57.147Z,100.00
2023-01-28T20:04:27.021Z,100.00
2023-01-28T20:06:57.022Z,100.00
2023-01-28T20:09:27.230Z,100.00
2023-01-28T20:11:57.035Z,100.00
2023-01-28T20:14:29.811Z,100.00
2023-01-28T20:16:59.681Z,100.00
2023-01-28T20:19:29.511Z,100.00
2023-01-28T20:21:59.403Z,100.00
2023-01-28T20:24:29.393Z,100.00
2023-01-28T20:26:59.230Z,100.00
2023-01-28T20:29:31.855Z,100.00
2023-01-28T20:32:16.169Z,100.00
2023-01-28T20:34:48.400Z,100.00
2023-01-28T20:37:18.605Z,100.00
2023-01-28T20:39:48.839Z,100.00
2023-01-28T20:42:18.846Z,100.00
2023-01-28T20:44:51.803Z,100.00
2023-01-28T20:47:21.611Z,100.00
2023-01-28T20:49:51.479Z,100.00
2023-01-28T20:52:21.322Z,100.00
2023-01-28T20:54:51.256Z,100.00
2023-01-28T20:57:21.079Z,100.00
2023-01-28T20:59:53.659Z,100.00
2023-01-28T21:02:23.483Z,100.00
2023-01-28T21:04:53.425Z,100.00
2023-01-28T21:07:23.245Z,100.00
2023-01-28T21:09:53.049Z,100.00
2023-01-28T21:12:23.082Z,100.00
2023-01-28T21:14:55.482Z,100.00
2023-01-28T21:17:25.423Z,100.00
2023-01-28T21:19:55.419Z,100.00
2023-01-28T21:22:25.213Z,100.00
2023-01-28T21:24:55.884Z,100.00
2023-01-28T21:27:25.722Z,100.00
2023-01-28T21:29:58.136Z,100.00
2023-01-28T21:32:27.965Z,100.00
2023-01-28T21:34:58.088Z,100.00
2023-01-28T21:37:28.805Z,100.00
2023-01-28T21:39:58.608Z,100.00
2023-01-28T21:42:29.166Z,100.00
2023-01-28T21:45:01.755Z,100.00
2023-01-28T21:47:31.625Z,100.00
2023-01-28T21:50:01.655Z,100.00
2023-01-28T21:52:31.557Z,100.00
2023-01-28T21:55:01.982Z,100.00
2023-01-28T21:57:31.818Z,100.00
2023-01-28T22:00:04.780Z,100.00
2023-01-28T22:02:34.665Z,100.00
2023-01-28T22:05:04.662Z,100.00
2023-01-28T22:07:34.623Z,100.00
2023-01-28T22:10:04.706Z,100.00
2023-01-28T22:12:34.555Z,100.00
2023-01-28T22:15:07.746Z,100.00
2023-01-28T22:17:37.591Z,100.00
2023-01-28T22:20:08.594Z,100.00
2023-01-28T22:22:38.415Z,100.00
2023-01-28T22:25:08.615Z,100.00
2023-01-28T22:27:38.520Z,100.00
2023-01-28T22:30:12.769Z,100.00
2023-01-28T22:32:43.151Z,100.00
2023-01-28T22:35:12.947Z,100.00
2023-01-28T22:37:42.747Z,100.00
2023-01-28T22:40:14.360Z,100.00
2023-01-28T22:42:44.287Z,100.00
2023-01-28T22:45:16.881Z,100.00
2023-01-28T22:47:46.917Z,100.00
2023-01-28T22:50:17.078Z,100.00
2023-01-28T22:52:47.050Z,100.00
2023-01-28T22:55:17.242Z,100.00
2023-01-28T22:57:47.435Z,100.00
2023-01-28T23:00:20.720Z,100.00
2023-01-28T23:02:50.560Z,100.00
2023-01-28T23:05:21.096Z,100.00
2023-01-28T23:07:51.001Z,100.00
2023-01-28T23:10:21.442Z,100.00
2023-01-28T23:12:56.296Z,100.00
2023-01-28T23:15:46.940Z,100.00
2023-01-28T23:18:33.432Z,100.00
2023-01-28T23:21:15.643Z,100.00
2023-01-28T23:23:57.871Z,100.00
2023-01-28T23:26:27.799Z,100.00
2023-01-28T23:28:57.883Z,100.00
2023-01-28T23:31:30.496Z,100.00
2023-01-28T23:34:00.385Z,100.00
2023-01-28T23:36:33.657Z,100.00
2023-01-28T23:39:03.555Z,100.00
2023-01-28T23:41:33.710Z,100.00
2023-01-28T23:44:03.783Z,100.00
2023-01-28T23:46:39.736Z,100.00
2023-01-28T23:49:10.246Z,100.00
2023-01-28T23:51:40.144Z,100.00
2023-01-28T23:54:09.951Z,100.00
2023-01-28T23:56:39.955Z,100.00
2023-01-28T23:59:09.763Z,100.00
